Tasman Sea — WDB5559 — position and weather

sailwx.info

Track history (hours):
 
Tides and Currents Weather Stations Pressure Air Temp Water Temp Dewpoint Dewpoint Depression Visibility Wind Speed Wind Dir Waves Ship Positions

Tasman Sea

Owner: Kirby Offshore Marine, LLC, Staten Island, NY. More information available from US FCC via Universal Licensing System and Coast Guard Vessel Documentation Center.

Last reported at 2015-Jan-30 08:34 UTC. Time now 2015-Jan-30 09:29 UTC.
Position N 40°40' W 074°02'.

Length 38 m; draft 5 m.

Type: Tug. MMSI: 366910960.

Date/timePositionNaut miles runAvg speedWind from/ knotsBaromVisibWave heightAir tempDewpointWater temp
2015-Jan-30 08:34N 40°40' W 074°02'0 0.1
2015-Jan-30 07:34N 40°40' W 074°02'0 0.1
2015-Jan-30 06:33N 40°40' W 074°02'0 0.2
2015-Jan-30 05:33N 40°40' W 074°02'0 0.0
2015-Jan-30 04:33N 40°40' W 074°02'0 0.0
2015-Jan-30 03:33N 40°40' W 074°02'0 0.0
2015-Jan-30 02:33N 40°40' W 074°02'0 0.0
2015-Jan-30 01:33N 40°40' W 074°02'0 0.2
2015-Jan-30 00:33N 40°40' W 074°02'0 0.0
2015-Jan-29 23:33N 40°40' W 074°02'1 1.1
2015-Jan-29 22:33N 40°39' W 074°03'9 8.9
2015-Jan-29 21:31N 40°31' W 073°59'9 8.9
2015-Jan-29 20:33N 40°29' W 073°48'9 9.1
2015-Jan-29 19:32N 40°30' W 073°35'10 9.3
2015-Jan-29 18:27N 40°32' W 073°22'8 9.3
2015-Jan-29 17:33N 40°35' W 073°12'9 9.4
2015-Jan-29 16:33N 40°38' W 073°01'10 9.3
2015-Jan-29 15:32N 40°42' W 072°49'9 9.2
2015-Jan-29 14:34N 40°45' W 072°38'9 9.2
2015-Jan-29 13:33N 40°49' W 072°27'9 9.1
2015-Jan-29 12:34N 40°52' W 072°16'9 8.9
2015-Jan-29 11:34N 40°56' W 072°05'9 8.9
2015-Jan-29 10:34N 40°59' W 071°54'9 8.9
2015-Jan-29 09:33N 41°03' W 071°43'9 9.0
2015-Jan-29 08:34N 41°06' W 071°32'9 8.8
2015-Jan-29 07:33N 41°10' W 071°22'9 8.8
2015-Jan-29 06:34N 41°17' W 071°14'9 9.0
2015-Jan-29 05:34N 41°23' W 071°06'  
2015-Jan-24 23:27N 42°23' W 070°53'61 5.0
2015-Jan-24 11:11N 41°25' W 071°22'4 6.8
2015-Jan-24 10:33N 41°30' W 071°21'8 7.8
2015-Jan-24 09:33N 41°37' W 071°18'7 7.4
2015-Jan-24 08:34N 41°44' W 071°22'3 3.3
2015-Jan-24 07:33N 41°47' W 071°22'0 0.0
2015-Jan-24 06:33N 41°47' W 071°22'0 0.0
2015-Jan-24 05:34N 41°47' W 071°22'0 0.0
2015-Jan-24 04:33N 41°47' W 071°22'0 0.0
2015-Jan-24 03:33N 41°47' W 071°22'0 0.0
2015-Jan-24 02:33N 41°47' W 071°22'0 0.0
2015-Jan-24 01:33N 41°47' W 071°22'0 0.0
2015-Jan-24 00:33N 41°47' W 071°22'0 0.0
2015-Jan-23 23:34N 41°47' W 071°22'0 0.1
2015-Jan-23 22:34N 41°47' W 071°22'6 5.6
2015-Jan-23 21:34N 41°42' W 071°19'7 6.7
2015-Jan-23 20:32N 41°35' W 071°19'7 6.7
2015-Jan-23 19:33N 41°29' W 071°21'6 6.0
2015-Jan-23 18:34N 41°23' W 071°21'7 7.2
2015-Jan-23 17:34N 41°15' W 071°21'7 6.5
2015-Jan-23 16:34N 41°09' W 071°25'7 7.3
2015-Jan-23 15:34N 41°06' W 071°33'7 7.0
2015-Jan-23 14:34N 41°03' W 071°42'7 7.4
2015-Jan-23 13:34N 40°60' W 071°51'8 7.6
2015-Jan-23 12:34N 40°57' W 071°60'7 7.0
2015-Jan-23 11:34N 40°54' W 072°08'7 6.9
2015-Jan-23 10:34N 40°51' W 072°17'7 6.8
2015-Jan-23 09:34N 40°49' W 072°25'7 6.9
2015-Jan-23 08:33N 40°46' W 072°34'8 7.1
2015-Jan-23 07:29N 40°43' W 072°43'7 7.2
2015-Jan-23 06:33N 40°41' W 072°51'8 7.4
2015-Jan-23 05:30N 40°38' W 073°01'10 7.4
2015-Jan-23 04:10N 40°35' W 073°13'5 7.3
2015-Jan-23 03:26N 40°33' W 073°19'9 7.2
2015-Jan-23 02:14N 40°31' W 073°30'5 6.9
2015-Jan-23 01:30N 40°30' W 073°37'15 6.6
2015-Jan-22 23:15N 40°27' W 073°56'15 2.3
2015-Jan-22 16:33N 40°39' W 074°10'0 0.0
2015-Jan-22 15:33N 40°39' W 074°10'0 0.0
2015-Jan-22 14:33N 40°39' W 074°10'0 0.0
2015-Jan-22 13:33N 40°39' W 074°10'0 0.0
2015-Jan-22 12:33N 40°39' W 074°10'3 2.6
2015-Jan-22 11:32N 40°37' W 074°12'5 0.9
2015-Jan-22 06:26N 40°33' W 074°15'0 0.0
2015-Jan-22 04:21N 40°33' W 074°15'4 3.5
2015-Jan-22 03:13N 40°30' W 074°11'3 0.9
2015-Jan-22 00:14N 40°29' W 074°08'0 0.0
2015-Jan-21 23:22N 40°29' W 074°08'0 0.0
2015-Jan-21 22:45N 40°29' W 074°08'0 0.1
2015-Jan-21 22:34N 40°29' W 074°08'0 0.1
2015-Jan-21 21:32N 40°29' W 074°08'0 0.2
2015-Jan-21 20:34N 40°29' W 074°07'0 0.0
2015-Jan-21 19:33N 40°29' W 074°07'5 4.5
2015-Jan-21 18:31N 40°30' W 074°14'6 6.0
2015-Jan-21 17:28N 40°36' W 074°12'0 0.4
2015-Jan-21 16:32N 40°36' W 074°12'1 1.4
2015-Jan-21 15:30N 40°38' W 074°12'2 2.1
2015-Jan-21 14:33N 40°39' W 074°10'0 0.0
2015-Jan-21 13:33N 40°39' W 074°10'0 0.0
2015-Jan-21 12:33N 40°39' W 074°10'0 0.0
2015-Jan-21 11:33N 40°39' W 074°10'3 3.3
2015-Jan-21 10:33N 40°36' W 074°12'0 0.0
2015-Jan-21 09:26N 40°36' W 074°12'0 0.0
2015-Jan-21 08:18N 40°36' W 074°12'0 0.0
2015-Jan-21 07:29N 40°36' W 074°12'0 0.0
2015-Jan-21 06:33N 40°36' W 074°12'0 0.0
2015-Jan-21 05:28N 40°36' W 074°12'5 5.1
2015-Jan-21 04:33N 40°39' W 074°07'1 0.6
2015-Jan-21 03:33N 40°39' W 074°07'0 0.0
2015-Jan-21 02:33N 40°39' W 074°07'4 4.3
2015-Jan-21 01:33N 40°38' W 074°12'0 0.1
2015-Jan-21 00:23N 40°38' W 074°12'5 6.2
2015-Jan-20 23:33N 40°39' W 074°05'3 3.2
2015-Jan-20 22:33N 40°41' W 074°02'4 4.3
2015-Jan-20 21:33N 40°45' W 074°01'  
Track history (hours):
 
Tides and Currents Weather Stations Pressure Air Temp Water Temp Dewpoint Dewpoint Depression Visibility Wind Speed Wind Dir Waves Ship Positions

Tasman Sea

Owner: Kirby Offshore Marine, LLC, Staten Island, NY. More information available from US FCC via Universal Licensing System and Coast Guard Vessel Documentation Center.

Last reported at 2015-Jan-30 08:34 UTC. Time now 2015-Jan-30 09:29 UTC.
Position N 40°40' W 074°02'.

Length 38 m; draft 5 m.

Type: Tug. MMSI: 366910960.

Date/timePositionNaut miles runAvg speedWind from/ knotsBaromVisibWave heightAir tempDewpointWater temp
2015-Jan-30 08:34N 40°40' W 074°02'0 0.1
2015-Jan-30 07:34N 40°40' W 074°02'0 0.1
2015-Jan-30 06:33N 40°40' W 074°02'0 0.2
2015-Jan-30 05:33N 40°40' W 074°02'0 0.0
2015-Jan-30 04:33N 40°40' W 074°02'0 0.0
2015-Jan-30 03:33N 40°40' W 074°02'0 0.0
2015-Jan-30 02:33N 40°40' W 074°02'0 0.0
2015-Jan-30 01:33N 40°40' W 074°02'0 0.2
2015-Jan-30 00:33N 40°40' W 074°02'0 0.0
2015-Jan-29 23:33N 40°40' W 074°02'1 1.1
2015-Jan-29 22:33N 40°39' W 074°03'9 8.9
2015-Jan-29 21:31N 40°31' W 073°59'9 8.9
2015-Jan-29 20:33N 40°29' W 073°48'9 9.1
2015-Jan-29 19:32N 40°30' W 073°35'10 9.3
2015-Jan-29 18:27N 40°32' W 073°22'8 9.3
2015-Jan-29 17:33N 40°35' W 073°12'9 9.4
2015-Jan-29 16:33N 40°38' W 073°01'10 9.3
2015-Jan-29 15:32N 40°42' W 072°49'9 9.2
2015-Jan-29 14:34N 40°45' W 072°38'9 9.2
2015-Jan-29 13:33N 40°49' W 072°27'9 9.1
2015-Jan-29 12:34N 40°52' W 072°16'9 8.9
2015-Jan-29 11:34N 40°56' W 072°05'9 8.9
2015-Jan-29 10:34N 40°59' W 071°54'9 8.9
2015-Jan-29 09:33N 41°03' W 071°43'9 9.0
2015-Jan-29 08:34N 41°06' W 071°32'9 8.8
2015-Jan-29 07:33N 41°10' W 071°22'9 8.8
2015-Jan-29 06:34N 41°17' W 071°14'9 9.0
2015-Jan-29 05:34N 41°23' W 071°06'  
2015-Jan-24 23:27N 42°23' W 070°53'61 5.0
2015-Jan-24 11:11N 41°25' W 071°22'4 6.8
2015-Jan-24 10:33N 41°30' W 071°21'8 7.8
2015-Jan-24 09:33N 41°37' W 071°18'7 7.4
2015-Jan-24 08:34N 41°44' W 071°22'3 3.3
2015-Jan-24 07:33N 41°47' W 071°22'0 0.0
2015-Jan-24 06:33N 41°47' W 071°22'0 0.0
2015-Jan-24 05:34N 41°47' W 071°22'0 0.0
2015-Jan-24 04:33N 41°47' W 071°22'0 0.0
2015-Jan-24 03:33N 41°47' W 071°22'0 0.0
2015-Jan-24 02:33N 41°47' W 071°22'0 0.0
2015-Jan-24 01:33N 41°47' W 071°22'0 0.0
2015-Jan-24 00:33N 41°47' W 071°22'0 0.0
2015-Jan-23 23:34N 41°47' W 071°22'0 0.1
2015-Jan-23 22:34N 41°47' W 071°22'6 5.6
2015-Jan-23 21:34N 41°42' W 071°19'7 6.7
2015-Jan-23 20:32N 41°35' W 071°19'7 6.7
2015-Jan-23 19:33N 41°29' W 071°21'6 6.0
2015-Jan-23 18:34N 41°23' W 071°21'7 7.2
2015-Jan-23 17:34N 41°15' W 071°21'7 6.5
2015-Jan-23 16:34N 41°09' W 071°25'7 7.3
2015-Jan-23 15:34N 41°06' W 071°33'7 7.0
2015-Jan-23 14:34N 41°03' W 071°42'7 7.4
2015-Jan-23 13:34N 40°60' W 071°51'8 7.6
2015-Jan-23 12:34N 40°57' W 071°60'7 7.0
2015-Jan-23 11:34N 40°54' W 072°08'7 6.9
2015-Jan-23 10:34N 40°51' W 072°17'7 6.8
2015-Jan-23 09:34N 40°49' W 072°25'7 6.9
2015-Jan-23 08:33N 40°46' W 072°34'8 7.1
2015-Jan-23 07:29N 40°43' W 072°43'7 7.2
2015-Jan-23 06:33N 40°41' W 072°51'8 7.4
2015-Jan-23 05:30N 40°38' W 073°01'10 7.4
2015-Jan-23 04:10N 40°35' W 073°13'5 7.3
2015-Jan-23 03:26N 40°33' W 073°19'9 7.2
2015-Jan-23 02:14N 40°31' W 073°30'5 6.9
2015-Jan-23 01:30N 40°30' W 073°37'15 6.6
2015-Jan-22 23:15N 40°27' W 073°56'15 2.3
2015-Jan-22 16:33N 40°39' W 074°10'0 0.0
2015-Jan-22 15:33N 40°39' W 074°10'0 0.0
2015-Jan-22 14:33N 40°39' W 074°10'0 0.0
2015-Jan-22 13:33N 40°39' W 074°10'0 0.0
2015-Jan-22 12:33N 40°39' W 074°10'3 2.6
2015-Jan-22 11:32N 40°37' W 074°12'5 0.9
2015-Jan-22 06:26N 40°33' W 074°15'0 0.0
2015-Jan-22 04:21N 40°33' W 074°15'4 3.5
2015-Jan-22 03:13N 40°30' W 074°11'3 0.9
2015-Jan-22 00:14N 40°29' W 074°08'0 0.0
2015-Jan-21 23:22N 40°29' W 074°08'0 0.0
2015-Jan-21 22:45N 40°29' W 074°08'0 0.1
2015-Jan-21 22:34N 40°29' W 074°08'0 0.1
2015-Jan-21 21:32N 40°29' W 074°08'0 0.2
2015-Jan-21 20:34N 40°29' W 074°07'0 0.0
2015-Jan-21 19:33N 40°29' W 074°07'5 4.5
2015-Jan-21 18:31N 40°30' W 074°14'6 6.0
2015-Jan-21 17:28N 40°36' W 074°12'0 0.4
2015-Jan-21 16:32N 40°36' W 074°12'1 1.4
2015-Jan-21 15:30N 40°38' W 074°12'2 2.1
2015-Jan-21 14:33N 40°39' W 074°10'0 0.0
2015-Jan-21 13:33N 40°39' W 074°10'0 0.0
2015-Jan-21 12:33N 40°39' W 074°10'0 0.0
2015-Jan-21 11:33N 40°39' W 074°10'3 3.3
2015-Jan-21 10:33N 40°36' W 074°12'0 0.0
2015-Jan-21 09:26N 40°36' W 074°12'0 0.0
2015-Jan-21 08:18N 40°36' W 074°12'0 0.0
2015-Jan-21 07:29N 40°36' W 074°12'0 0.0
2015-Jan-21 06:33N 40°36' W 074°12'0 0.0
2015-Jan-21 05:28N 40°36' W 074°12'5 5.1
2015-Jan-21 04:33N 40°39' W 074°07'1 0.6
2015-Jan-21 03:33N 40°39' W 074°07'0 0.0
2015-Jan-21 02:33N 40°39' W 074°07'4 4.3
2015-Jan-21 01:33N 40°38' W 074°12'0 0.1
2015-Jan-21 00:23N 40°38' W 074°12'5 6.2
2015-Jan-20 23:33N 40°39' W 074°05'3 3.2
2015-Jan-20 22:33N 40°41' W 074°02'4 4.3
2015-Jan-20 21:33N 40°45' W 074°01'  

Dump ship's entire track history